createdAt,value
2022-09-28T00:00:08.301Z,11.30
2022-09-28T00:02:39.691Z,11.20
2022-09-28T00:05:09.238Z,11.20
2022-09-28T00:07:41.028Z,11.30
2022-09-28T00:10:14.828Z,11.20
2022-09-28T00:12:44.425Z,11.20
2022-09-28T00:15:13.481Z,11.20
2022-09-28T00:17:49.899Z,11.20
2022-09-28T00:20:19.840Z,11.20
2022-09-28T00:22:49.427Z,11.20
2022-09-28T00:25:22.387Z,11.20
2022-09-28T00:27:52.913Z,11.20
2022-09-28T00:30:22.157Z,11.20
2022-09-28T00:32:55.322Z,11.20
2022-09-28T00:35:24.372Z,11.20
2022-09-28T00:37:53.287Z,11.20
2022-09-28T00:40:24.400Z,11.20
2022-09-28T00:42:53.557Z,11.20
2022-09-28T00:45:24.627Z,11.20
2022-09-28T00:47:56.518Z,11.20
2022-09-28T00:50:31.202Z,11.20
2022-09-28T00:53:03.509Z,11.20
2022-09-28T00:55:39.933Z,11.10
2022-09-28T00:58:14.636Z,11.10
2022-09-28T01:00:44.124Z,11.10
2022-09-28T01:03:14.560Z,11.10
2022-09-28T01:05:45.789Z,11.20
2022-09-28T01:08:16.144Z,11.10
2022-09-28T01:10:46.770Z,11.10
2022-09-28T01:13:18.294Z,11.10
2022-09-28T01:15:58.572Z,11.10
2022-09-28T01:18:38.052Z,11.10
2022-09-28T01:21:25.015Z,11.10
2022-09-28T01:24:24.174Z,11.10
2022-09-28T01:27:14.672Z,11.10
2022-09-28T01:29:52.728Z,11.00
2022-09-28T01:32:31.285Z,11.00
2022-09-28T01:35:04.714Z,11.00
2022-09-28T01:37:43.598Z,11.00
2022-09-28T01:40:19.519Z,11.00
2022-09-28T01:42:54.772Z,11.00
2022-09-28T01:45:33.283Z,11.00
2022-09-28T01:48:10.863Z,11.00
2022-09-28T01:50:45.204Z,10.90
2022-09-28T01:53:23.444Z,10.90
2022-09-28T01:56:04.095Z,10.90
2022-09-28T01:58:39.951Z,10.90
2022-09-28T02:01:13.986Z,10.90
2022-09-28T02:03:49.025Z,10.80
2022-09-28T02:06:22.423Z,10.80
2022-09-28T02:08:58.411Z,10.80
2022-09-28T02:11:27.281Z,10.80
2022-09-28T02:14:06.084Z,10.80
2022-09-28T02:16:41.016Z,10.80
2022-09-28T02:19:12.896Z,10.80
2022-09-28T02:21:48.295Z,10.70
2022-09-28T02:24:24.361Z,10.70
2022-09-28T02:26:56.815Z,10.70
2022-09-28T02:29:29.336Z,10.70
2022-09-28T02:31:58.712Z,10.70
2022-09-28T02:34:27.811Z,10.70
2022-09-28T02:36:57.936Z,10.70
2022-09-28T02:39:29.728Z,10.60
2022-09-28T02:42:08.505Z,10.60
2022-09-28T02:45:00.380Z,10.70
2022-09-28T02:47:37.485Z,10.60
2022-09-28T02:50:17.485Z,10.60
2022-09-28T02:53:05.068Z,10.60
2022-09-28T02:55:47.488Z,10.60
2022-09-28T02:58:26.142Z,10.60
2022-09-28T03:01:03.446Z,10.60
2022-09-28T03:03:39.441Z,10.60
2022-09-28T03:06:15.873Z,10.60
2022-09-28T03:08:50.235Z,10.60
2022-09-28T03:11:26.521Z,10.60
2022-09-28T03:13:56.308Z,10.60
2022-09-28T03:16:32.023Z,10.50
2022-09-28T03:19:00.903Z,10.50
2022-09-28T03:21:29.611Z,10.60
2022-09-28T03:23:58.359Z,10.50
2022-09-28T03:26:27.526Z,10.50
2022-09-28T03:28:56.139Z,10.50
2022-09-28T03:31:33.857Z,10.50
2022-09-28T03:34:03.075Z,10.50
2022-09-28T03:36:32.078Z,10.50
2022-09-28T03:39:01.658Z,10.50
2022-09-28T03:41:30.488Z,10.50
2022-09-28T03:43:59.345Z,10.50
2022-09-28T03:46:29.642Z,10.50
2022-09-28T03:48:59.751Z,10.50
2022-09-28T03:51:43.090Z,10.50
2022-09-28T03:54:13.284Z,10.50
2022-09-28T03:56:42.483Z,10.50
2022-09-28T03:59:12.756Z,10.50
2022-09-28T04:01:43.529Z,10.50
2022-09-28T04:04:13.927Z,10.50
2022-09-28T04:09:43.073Z,10.50
2022-09-28T04:12:12.080Z,10.50
2022-09-28T04:15:03.837Z,10.50
2022-09-28T04:17:48.843Z,10.50
2022-09-28T04:20:17.860Z,10.50
2022-09-28T04:22:46.822Z,10.50
2022-09-28T04:25:15.644Z,10.50
2022-09-28T04:28:01.420Z,10.40
2022-09-28T04:30:30.261Z,10.40
2022-09-28T04:33:01.092Z,10.50
2022-09-28T04:35:30.418Z,10.50
2022-09-28T04:38:00.870Z,10.40
2022-09-28T04:40:29.550Z,10.50
2022-09-28T04:42:59.221Z,10.40
2022-09-28T04:45:28.882Z,10.40
2022-09-28T04:47:58.732Z,10.40
2022-09-28T04:50:31.114Z,10.40
2022-09-28T04:53:00.173Z,10.40
2022-09-28T04:55:35.314Z,10.40
2022-09-28T04:58:07.768Z,10.40
2022-09-28T05:00:36.766Z,10.40
2022-09-28T05:03:08.020Z,10.40
2022-09-28T05:05:38.566Z,10.50
2022-09-28T05:08:09.024Z,10.40
2022-09-28T05:10:40.657Z,10.40
2022-09-28T05:13:12.101Z,10.40
2022-09-28T05:18:24.902Z,10.40
2022-09-28T05:20:55.501Z,10.40
2022-09-28T05:23:26.873Z,10.40
2022-09-28T05:25:55.930Z,10.40
2022-09-28T05:28:28.775Z,10.40
2022-09-28T05:31:01.456Z,10.40
2022-09-28T05:33:31.275Z,10.40
2022-09-28T05:36:07.429Z,10.40
2022-09-28T05:38:36.413Z,10.40
2022-09-28T05:41:09.671Z,10.40
2022-09-28T05:43:39.552Z,10.40
2022-09-28T05:46:08.991Z,10.40
2022-09-28T05:48:37.864Z,10.40
2022-09-28T05:51:15.672Z,10.40
2022-09-28T05:53:44.241Z,10.40
2022-09-28T05:56:18.820Z,10.40
2022-09-28T05:58:47.448Z,10.40
2022-09-28T06:01:16.139Z,10.40
2022-09-28T06:03:44.796Z,10.40
2022-09-28T06:06:15.651Z,10.40
2022-09-28T06:08:46.455Z,10.40
2022-09-28T06:11:17.739Z,10.40
2022-09-28T06:13:46.604Z,10.40
2022-09-28T06:16:17.895Z,10.30
2022-09-28T06:18:46.487Z,10.40
2022-09-28T06:21:17.138Z,10.30
2022-09-28T06:23:49.176Z,10.30
2022-09-28T06:26:18.891Z,10.40
2022-09-28T06:29:01.342Z,10.40
2022-09-28T06:31:31.634Z,10.40
2022-09-28T06:34:02.353Z,10.30
2022-09-28T06:36:33.202Z,10.30
2022-09-28T06:39:03.163Z,10.30
2022-09-28T06:41:32.139Z,10.30
2022-09-28T06:44:04.048Z,10.30
2022-09-28T06:46:32.919Z,10.30
2022-09-28T06:49:02.068Z,10.30
2022-09-28T06:51:32.933Z,10.30
2022-09-28T06:54:01.736Z,10.30
2022-09-28T06:56:39.381Z,10.30
2022-09-28T06:59:08.026Z,10.30
2022-09-28T07:01:42.289Z,10.30
2022-09-28T07:04:11.030Z,10.30
2022-09-28T07:06:41.235Z,10.30
2022-09-28T07:09:29.317Z,10.30
2022-09-28T07:11:59.776Z,10.30
2022-09-28T07:21:34.557Z,10.30
2022-09-28T07:24:16.993Z,10.30
2022-09-28T07:29:54.793Z,10.30
2022-09-28T07:41:19.330Z,10.30
2022-09-28T07:47:50.979Z,10.40
2022-09-28T07:50:22.492Z,10.40
2022-09-28T07:53:04.182Z,10.40
2022-09-28T07:55:32.600Z,10.40
2022-09-28T07:58:01.973Z,10.40
2022-09-28T08:00:49.902Z,10.40
2022-09-28T08:03:22.572Z,10.40
2022-09-28T08:05:50.952Z,10.40
2022-09-28T08:08:23.059Z,10.40
2022-09-28T08:11:03.094Z,10.40
2022-09-28T08:13:31.573Z,10.40
2022-09-28T08:16:03.361Z,10.40
2022-09-28T08:18:34.866Z,10.50
2022-09-28T08:21:34.730Z,10.50
2022-09-28T08:25:11.635Z,10.50
2022-09-28T08:27:40.117Z,10.50
2022-09-28T08:30:14.246Z,10.50
2022-09-28T08:32:49.584Z,10.50
2022-09-28T08:35:19.534Z,10.50
2022-09-28T08:37:55.622Z,10.50
2022-09-28T08:40:26.909Z,10.50
2022-09-28T08:43:01.537Z,10.50
2022-09-28T08:45:33.742Z,10.60
2022-09-28T08:48:22.378Z,10.50
2022-09-28T08:50:57.426Z,10.60
2022-09-28T08:53:38.781Z,10.60
2022-09-28T08:56:13.621Z,10.60
2022-09-28T08:59:17.707Z,10.60
2022-09-28T09:01:51.693Z,10.60
2022-09-28T09:04:35.764Z,10.60
2022-09-28T09:07:26.155Z,10.60
2022-09-28T09:10:13.727Z,10.70
2022-09-28T09:13:00.799Z,10.70
2022-09-28T09:15:44.396Z,10.70
2022-09-28T09:18:54.103Z,10.70
2022-09-28T09:21:38.901Z,10.70
2022-09-28T09:24:37.167Z,10.70
2022-09-28T09:27:28.301Z,10.80
2022-09-28T09:30:19.690Z,10.70
2022-09-28T09:33:07.760Z,10.70
2022-09-28T09:36:11.675Z,10.80
2022-09-28T09:38:53.956Z,10.80
2022-09-28T09:41:33.918Z,10.80
2022-09-28T09:44:35.270Z,10.80
2022-09-28T09:47:37.203Z,10.80
2022-09-28T09:50:13.713Z,10.80
2022-09-28T09:53:36.183Z,10.80
2022-09-28T09:56:14.008Z,10.80
2022-09-28T09:58:48.932Z,10.80
2022-09-28T10:01:21.385Z,10.80
2022-09-28T10:03:52.263Z,10.80
2022-09-28T10:07:31.831Z,10.90
2022-09-28T10:10:02.190Z,10.90
2022-09-28T10:13:17.645Z,10.90
2022-09-28T10:15:49.273Z,10.90
2022-09-28T10:18:53.663Z,10.90
2022-09-28T10:21:29.144Z,10.90
2022-09-28T10:24:18.889Z,10.90
2022-09-28T10:27:09.775Z,10.90
2022-09-28T10:33:34.501Z,10.90
2022-09-28T10:36:06.637Z,11.00
2022-09-28T10:38:35.737Z,11.00
2022-09-28T10:41:17.558Z,11.00
2022-09-28T10:44:31.672Z,10.90
2022-09-28T10:47:40.811Z,11.00
2022-09-28T10:50:35.889Z,11.00
2022-09-28T10:53:25.273Z,11.00
2022-09-28T11:01:09.634Z,11.00
2022-09-28T11:03:52.219Z,11.00
2022-09-28T11:06:40.350Z,11.00
2022-09-28T11:09:30.537Z,11.10
2022-09-28T11:12:59.049Z,11.00
2022-09-28T11:15:31.230Z,11.00
2022-09-28T11:18:34.548Z,11.00
2022-09-28T11:21:12.890Z,11.00
2022-09-28T11:27:09.962Z,11.00
2022-09-28T11:29:43.177Z,11.10
2022-09-28T11:32:15.648Z,11.10
2022-09-28T11:34:59.166Z,11.10
2022-09-28T11:37:44.100Z,11.10
2022-09-28T11:40:31.146Z,11.10
2022-09-28T11:43:14.455Z,11.10
2022-09-28T11:45:55.825Z,11.10
2022-09-28T11:49:44.744Z,11.10
2022-09-28T11:56:17.181Z,11.10
2022-09-28T11:58:53.537Z,11.20
2022-09-28T12:01:27.320Z,11.10
2022-09-28T12:04:01.499Z,11.20
2022-09-28T12:16:27.652Z,11.20
2022-09-28T12:19:19.530Z,11.20
2022-09-28T12:21:53.984Z,11.20
2022-09-28T12:27:25.527Z,11.30
2022-09-28T12:30:03.987Z,11.30
2022-09-28T12:32:48.215Z,11.30
2022-09-28T12:35:29.181Z,11.30
2022-09-28T12:41:47.704Z,11.30
2022-09-28T12:44:59.405Z,11.30
2022-09-28T12:47:59.116Z,11.30
2022-09-28T12:50:40.647Z,11.30
2022-09-28T12:53:55.740Z,11.30
2022-09-28T12:56:33.115Z,11.40
2022-09-28T13:02:19.515Z,11.40
2022-09-28T13:05:04.852Z,11.40
2022-09-28T13:07:45.343Z,11.50
2022-09-28T13:10:25.719Z,11.40
2022-09-28T13:16:39.486Z,11.50
2022-09-28T13:19:24.921Z,11.50
2022-09-28T13:22:17.689Z,11.50
2022-09-28T13:25:11.190Z,11.50
2022-09-28T13:27:43.792Z,11.50
2022-09-28T13:30:18.808Z,11.50
2022-09-28T13:33:11.960Z,11.60
2022-09-28T13:35:48.095Z,11.50
2022-09-28T13:51:39.726Z,11.60
2022-09-28T14:10:21.356Z,11.70
2022-09-28T14:12:57.737Z,11.70
2022-09-28T14:18:42.516Z,11.70
2022-09-28T14:22:22.775Z,11.80
2022-09-28T14:25:15.330Z,11.80
2022-09-28T14:28:08.252Z,11.80
2022-09-28T14:30:50.211Z,11.80
2022-09-28T14:33:33.400Z,11.80
2022-09-28T14:36:44.863Z,11.80
2022-09-28T14:43:31.372Z,11.90
2022-09-28T14:50:02.897Z,11.90
2022-09-28T14:52:46.993Z,11.90
2022-09-28T14:55:18.835Z,11.90
2022-09-28T14:57:57.350Z,11.90
2022-09-28T15:00:29.600Z,12.00
2022-09-28T15:03:02.753Z,12.00
2022-09-28T15:05:40.435Z,12.00
2022-09-28T15:08:09.068Z,12.00
2022-09-28T15:10:40.540Z,12.00
2022-09-28T15:13:22.082Z,12.00
2022-09-28T15:15:54.310Z,12.00
2022-09-28T15:18:51.433Z,12.00
2022-09-28T15:21:22.956Z,12.00
2022-09-28T15:23:51.876Z,12.00
2022-09-28T15:26:27.563Z,12.00
2022-09-28T15:28:57.137Z,12.00
2022-09-28T15:31:27.444Z,12.00
2022-09-28T15:34:13.450Z,12.00
2022-09-28T15:36:46.598Z,12.10
2022-09-28T15:39:18.609Z,12.00
2022-09-28T15:41:49.114Z,12.00
2022-09-28T15:44:37.957Z,12.10
2022-09-28T15:47:09.874Z,12.10
2022-09-28T15:49:42.990Z,12.00
2022-09-28T15:52:29.747Z,12.10
2022-09-28T15:55:01.099Z,12.10
2022-09-28T15:57:37.081Z,12.00
2022-09-28T16:00:08.641Z,12.00
2022-09-28T16:02:38.598Z,12.10
2022-09-28T16:05:36.095Z,12.10
2022-09-28T16:08:14.396Z,12.00
2022-09-28T16:10:57.296Z,12.00
2022-09-28T16:13:26.502Z,12.00
2022-09-28T16:16:00.939Z,12.00
2022-09-28T16:18:31.511Z,12.10
2022-09-28T16:21:26.272Z,12.00
2022-09-28T16:23:57.895Z,12.00
2022-09-28T16:26:34.124Z,12.00
2022-09-28T16:29:09.677Z,12.00
2022-09-28T16:31:41.765Z,12.00
2022-09-28T16:34:20.426Z,12.00
2022-09-28T16:36:50.636Z,12.00
2022-09-28T16:39:38.700Z,12.00
2022-09-28T16:42:09.038Z,12.00
2022-09-28T16:44:38.448Z,11.90
2022-09-28T16:47:19.793Z,11.90
2022-09-28T16:49:51.763Z,11.90
2022-09-28T16:52:34.864Z,11.90
2022-09-28T16:55:39.474Z,11.90
2022-09-28T16:58:11.710Z,11.90
2022-09-28T17:00:47.088Z,11.90
2022-09-28T17:03:19.006Z,11.90
2022-09-28T17:05:49.349Z,11.90
2022-09-28T17:28:25.343Z,11.80
2022-09-28T17:30:54.513Z,11.80
2022-09-28T17:33:25.188Z,11.80
2022-09-28T17:36:01.310Z,11.80
2022-09-28T17:38:30.340Z,11.80
2022-09-28T17:40:59.332Z,11.80
2022-09-28T17:43:28.189Z,11.70
2022-09-28T17:45:58.437Z,11.80
2022-09-28T17:48:28.722Z,11.80
2022-09-28T17:50:57.946Z,11.70
2022-09-28T17:53:26.860Z,11.70
2022-09-28T17:55:56.142Z,11.70
2022-09-28T17:58:25.437Z,11.70
2022-09-28T18:00:55.049Z,11.70
2022-09-28T18:03:28.705Z,11.70
2022-09-28T18:06:03.867Z,11.70
2022-09-28T18:08:33.073Z,11.70
2022-09-28T18:11:04.338Z,11.70
2022-09-28T18:13:34.266Z,11.70
2022-09-28T18:16:03.973Z,11.70
2022-09-28T18:18:38.375Z,11.70
2022-09-28T18:21:07.575Z,11.70
2022-09-28T18:23:37.790Z,11.70
2022-09-28T18:26:11.899Z,11.70
2022-09-28T18:28:43.143Z,11.70
2022-09-28T18:31:13.220Z,11.60
2022-09-28T18:33:45.146Z,11.70
2022-09-28T18:36:14.233Z,11.60
2022-09-28T18:38:45.077Z,11.60
2022-09-28T18:41:17.429Z,11.60
2022-09-28T18:43:51.314Z,11.70
2022-09-28T18:46:20.604Z,11.70
2022-09-28T18:48:51.313Z,11.60
2022-09-28T18:51:20.739Z,11.70
2022-09-28T18:53:50.735Z,11.60
2022-09-28T18:56:21.253Z,11.60
2022-09-28T18:58:52.829Z,11.60
2022-09-28T19:01:29.989Z,11.60
2022-09-28T19:04:02.333Z,11.60
2022-09-28T19:06:33.063Z,11.60
2022-09-28T19:09:02.782Z,11.60
2022-09-28T19:11:33.544Z,11.60
2022-09-28T19:14:05.109Z,11.60
2022-09-28T19:16:35.452Z,11.60
2022-09-28T19:19:07.010Z,11.60
2022-09-28T19:21:36.333Z,11.60
2022-09-28T19:24:05.611Z,11.60
2022-09-28T19:26:35.488Z,11.60
2022-09-28T19:29:04.456Z,11.60
2022-09-28T19:31:43.781Z,11.60
2022-09-28T19:34:14.517Z,11.60
2022-09-28T19:36:43.789Z,11.60
2022-09-28T19:39:15.987Z,11.50
2022-09-28T19:41:49.862Z,11.50
2022-09-28T19:44:25.228Z,11.60
2022-09-28T19:46:58.604Z,11.50
2022-09-28T19:49:37.148Z,11.50
2022-09-28T19:52:14.933Z,11.50
2022-09-28T19:54:45.864Z,11.50
2022-09-28T19:57:16.102Z,11.50
2022-09-28T19:59:47.496Z,11.50
2022-09-28T20:02:19.691Z,11.50
2022-09-28T20:04:49.856Z,11.50
2022-09-28T20:07:18.324Z,11.50
2022-09-28T20:09:48.505Z,11.50
2022-09-28T20:12:17.072Z,11.50
2022-09-28T20:14:45.893Z,11.50
2022-09-28T20:17:14.406Z,11.50
2022-09-28T20:19:44.148Z,11.50
2022-09-28T20:22:17.066Z,11.50
2022-09-28T20:24:45.505Z,11.50
2022-09-28T20:27:14.394Z,11.50
2022-09-28T20:29:43.599Z,11.50
2022-09-28T20:32:12.626Z,11.50
2022-09-28T20:34:41.181Z,11.50
2022-09-28T20:37:09.739Z,11.50
2022-09-28T20:39:42.804Z,11.50
2022-09-28T20:42:14.486Z,11.50
2022-09-28T20:44:43.013Z,11.50
2022-09-28T20:47:11.563Z,11.50
2022-09-28T20:49:40.259Z,11.50
2022-09-28T20:52:08.823Z,11.50
2022-09-28T20:54:39.413Z,11.50
2022-09-28T20:57:17.653Z,11.50
2022-09-28T20:59:48.712Z,11.50
2022-09-28T21:02:19.822Z,11.50
2022-09-28T21:04:48.835Z,11.50
2022-09-28T21:07:17.456Z,11.50
2022-09-28T21:09:47.739Z,11.50
2022-09-28T21:12:17.274Z,11.50
2022-09-28T21:14:45.773Z,11.50
2022-09-28T21:17:14.552Z,11.50
2022-09-28T21:19:43.202Z,11.50
2022-09-28T21:22:14.055Z,11.50
2022-09-28T21:24:42.525Z,11.40
2022-09-28T21:27:12.787Z,11.40
2022-09-28T21:29:41.439Z,11.50
2022-09-28T21:32:10.200Z,11.50
2022-09-28T21:34:38.753Z,11.50
2022-09-28T21:37:07.611Z,11.50
2022-09-28T21:39:36.235Z,11.40
2022-09-28T21:42:07.112Z,11.50
2022-09-28T21:44:37.173Z,11.50
2022-09-28T21:47:05.910Z,11.50
2022-09-28T21:49:34.673Z,11.40
2022-09-28T21:52:03.350Z,11.40
2022-09-28T21:54:32.148Z,11.50
2022-09-28T21:57:01.452Z,11.50
2022-09-28T21:59:30.294Z,11.40
2022-09-28T22:02:00.535Z,11.40
2022-09-28T22:04:29.416Z,11.40
2022-09-28T22:06:58.177Z,11.40
2022-09-28T22:09:26.758Z,11.40
2022-09-28T22:11:55.404Z,11.40
2022-09-28T22:14:24.669Z,11.30
2022-09-28T22:16:54.738Z,11.30
2022-09-28T22:19:24.475Z,11.30
2022-09-28T22:21:52.866Z,11.30
2022-09-28T22:24:21.429Z,11.30
2022-09-28T22:26:50.224Z,11.30
2022-09-28T22:29:21.681Z,11.30
2022-09-28T22:31:50.131Z,11.30
2022-09-28T22:34:18.859Z,11.30
2022-09-28T22:36:49.345Z,11.20
2022-09-28T22:39:18.139Z,11.20
2022-09-28T22:41:46.714Z,11.20
2022-09-28T22:44:15.302Z,11.30
2022-09-28T22:46:43.907Z,11.30
2022-09-28T22:49:13.310Z,11.30
2022-09-28T22:51:42.134Z,11.20
2022-09-28T22:54:15.983Z,11.20
2022-09-28T22:56:45.611Z,11.20
2022-09-28T22:59:14.456Z,11.20
2022-09-28T23:01:43.053Z,11.20
2022-09-28T23:04:12.068Z,11.20
2022-09-28T23:06:41.279Z,11.20
2022-09-28T23:09:09.663Z,11.20
2022-09-28T23:11:40.033Z,11.20
2022-09-28T23:14:11.055Z,11.20
2022-09-28T23:16:39.536Z,11.10
2022-09-28T23:19:08.687Z,11.20
2022-09-28T23:21:37.507Z,11.20
2022-09-28T23:24:06.524Z,11.20
2022-09-28T23:26:37.095Z,11.10
2022-09-28T23:29:07.894Z,11.10
2022-09-28T23:31:36.655Z,11.10
2022-09-28T23:34:07.440Z,11.10
2022-09-28T23:36:36.144Z,11.10
2022-09-28T23:39:05.183Z,11.10
2022-09-28T23:41:35.743Z,11.10
2022-09-28T23:44:04.866Z,11.10
2022-09-28T23:46:35.252Z,11.00
2022-09-28T23:49:03.884Z,11.00
2022-09-28T23:51:33.088Z,11.00
2022-09-28T23:54:04.574Z,11.00
2022-09-28T23:56:33.111Z,11.00
2022-09-28T23:59:02.068Z,11.00
